Grand Princess — ZCBU5 — position and weather

sailwx.info

Track history (hours):
 
Tides and Currents Weather Stations Pressure Air Temp Water Temp Dewpoint Dewpoint Depression Visibility Wind Speed Wind Dir Waves Ship Positions

Grand Princess

Operator: Princess Cruises

Last reported at 2015-Jan-25 15:33 UTC. Time now 2015-Jan-30 09:29 UTC.
Position N 29°47' W 116°33'.

Length 289.5 m; beam 36 m; draft 8.5 m.

Type: Ship. MMSI: 310327000.

Date/timePositionNaut miles runAvg speedWind from/ knotsBaromVisibWave heightAir tempDewpointWater temp
2015-Jan-25 15:33N 29°47' W 116°33'2121.2
2015-Jan-25 14:33N 30°07' W 116°41'2220.9
2015-Jan-25 13:31N 30°27' W 116°50'2020.5
2015-Jan-25 12:33N 30°46' W 116°58'10218.9
2015-Jan-25 07:09N 32°22' W 117°41'915.3
2015-Jan-25 06:33N 32°30' W 117°44'1515.4
2015-Jan-25 05:33N 32°44' W 117°51'1515.4
2015-Jan-25 04:33N 32°59' W 117°57'1615.5
2015-Jan-25 03:31N 33°14' W 118°04'1515.6
2015-Jan-25 02:33N 33°28' W 118°10'1612.2
2015-Jan-25 01:16N 33°43' W 118°16'2 2.6
2015-Jan-25 00:32N 33°45' W 118°17'0 0.0
2015-Jan-24 23:28N 33°45' W 118°17'0 0.0
2015-Jan-24 22:31N 33°45' W 118°17'0 0.0
2015-Jan-24 21:31N 33°45' W 118°17'0 0.0
2015-Jan-24 20:33N 33°45' W 118°17'0 0.0
2015-Jan-24 19:33N 33°45' W 118°17'0 0.0
2015-Jan-24 18:32N 33°45' W 118°17'0 0.0
2015-Jan-24 17:32N 33°45' W 118°17'0 0.0
2015-Jan-24 16:31N 33°45' W 118°17'0 0.0
2015-Jan-24 15:31N 33°45' W 118°17'0 0.0
2015-Jan-24 14:33N 33°45' W 118°17'5 5.0
2015-Jan-24 13:29N 33°41' W 118°13'1010.6
2015-Jan-24 12:33N 33°32' W 118°08'1514.6
2015-Jan-24 11:33N 33°18' W 118°02'1817.5
2015-Jan-24 10:33N 33°02' W 117°54'1818.2
2015-Jan-24 09:33N 32°45' W 117°46'1918.8
2015-Jan-24 08:33N 32°27' W 117°39'2120.7
2015-Jan-24 07:33N 32°07' W 117°31'  
2015-Jan-18 18:00N 28°48' W 116°06'4530.9 070 / 51022.410.8 19.510.319.0
2015-Jan-18 16:33N 29°29' W 116°25'1919.1
2015-Jan-18 15:33N 29°47' W 116°33'2019.6
2015-Jan-18 14:34N 30°05' W 116°40'2019.6
2015-Jan-18 13:33N 30°24' W 116°49'1919.3
2015-Jan-18 12:34N 30°42' W 116°57'1919.2
2015-Jan-18 11:34N 30°60' W 117°04'2419.8
2015-Jan-18 10:21N 31°22' W 117°14'1619.6
2015-Jan-18 09:32N 31°37' W 117°21'1919.4
2015-Jan-18 08:33N 31°55' W 117°29'1919.3
2015-Jan-18 07:33N 32°13' W 117°37'1616.1
2015-Jan-18 06:34N 32°28' W 117°43'1615.5
2015-Jan-18 05:33N 32°42' W 117°50'1615.8
2015-Jan-18 04:33N 32°57' W 117°57'1615.7
2015-Jan-18 03:34N 33°12' W 118°03'1615.5
2015-Jan-18 02:33N 33°27' W 118°10'1413.9
2015-Jan-18 01:33N 33°40' W 118°15'5 5.0
2015-Jan-18 00:29N 33°45' W 118°17'0 0.0
2015-Jan-17 23:32N 33°45' W 118°17'0 0.0
2015-Jan-17 22:31N 33°45' W 118°17'0 0.0
2015-Jan-17 21:31N 33°45' W 118°17'0 0.0
2015-Jan-17 20:33N 33°45' W 118°17'0 0.0
2015-Jan-17 19:33N 33°45' W 118°17'0 0.0
2015-Jan-17 18:33N 33°45' W 118°17'0 0.0
2015-Jan-17 17:32N 33°45' W 118°17'0 0.0
2015-Jan-17 16:32N 33°45' W 118°17'0 0.0
2015-Jan-17 15:31N 33°45' W 118°17'0 0.0
2015-Jan-17 14:33N 33°45' W 118°17'5 5.4
2015-Jan-17 13:33N 33°41' W 118°13'10 9.8
2015-Jan-17 12:33N 33°31' W 118°08'1414.1
2015-Jan-17 11:33N 33°18' W 118°03'1919.1
2015-Jan-17 10:33N 33°00' W 117°54'2020.1
2015-Jan-17 09:33N 32°42' W 117°46'2020.2
2015-Jan-17 08:33N 32°23' W 117°38'2121.0
2015-Jan-17 07:33N 32°03' W 117°29'2221.8
2015-Jan-17 06:33N 31°42' W 117°20'2321.4
2015-Jan-17 05:27N 31°20' W 117°11'1921.5
2015-Jan-17 04:33N 31°02' W 117°03'2221.6
2015-Jan-17 03:33N 30°42' W 116°54'2421.8
2015-Jan-17 02:26N 30°19' W 116°45'1921.3
2015-Jan-17 01:33N 30°01' W 116°37'2120.6
2015-Jan-17 00:33N 29°42' W 116°29'2120.5
2015-Jan-16 23:33N 29°23' W 116°21'6220.8
2015-Jan-16 20:33N 28°24' W 115°57'  
Track history (hours):
 
Tides and Currents Weather Stations Pressure Air Temp Water Temp Dewpoint Dewpoint Depression Visibility Wind Speed Wind Dir Waves Ship Positions

Grand Princess

Operator: Princess Cruises

Last reported at 2015-Jan-25 15:33 UTC. Time now 2015-Jan-30 09:29 UTC.
Position N 29°47' W 116°33'.

Length 289.5 m; beam 36 m; draft 8.5 m.

Type: Ship. MMSI: 310327000.

Date/timePositionNaut miles runAvg speedWind from/ knotsBaromVisibWave heightAir tempDewpointWater temp
2015-Jan-25 15:33N 29°47' W 116°33'2121.2
2015-Jan-25 14:33N 30°07' W 116°41'2220.9
2015-Jan-25 13:31N 30°27' W 116°50'2020.5
2015-Jan-25 12:33N 30°46' W 116°58'10218.9
2015-Jan-25 07:09N 32°22' W 117°41'915.3
2015-Jan-25 06:33N 32°30' W 117°44'1515.4
2015-Jan-25 05:33N 32°44' W 117°51'1515.4
2015-Jan-25 04:33N 32°59' W 117°57'1615.5
2015-Jan-25 03:31N 33°14' W 118°04'1515.6
2015-Jan-25 02:33N 33°28' W 118°10'1612.2
2015-Jan-25 01:16N 33°43' W 118°16'2 2.6
2015-Jan-25 00:32N 33°45' W 118°17'0 0.0
2015-Jan-24 23:28N 33°45' W 118°17'0 0.0
2015-Jan-24 22:31N 33°45' W 118°17'0 0.0
2015-Jan-24 21:31N 33°45' W 118°17'0 0.0
2015-Jan-24 20:33N 33°45' W 118°17'0 0.0
2015-Jan-24 19:33N 33°45' W 118°17'0 0.0
2015-Jan-24 18:32N 33°45' W 118°17'0 0.0
2015-Jan-24 17:32N 33°45' W 118°17'0 0.0
2015-Jan-24 16:31N 33°45' W 118°17'0 0.0
2015-Jan-24 15:31N 33°45' W 118°17'0 0.0
2015-Jan-24 14:33N 33°45' W 118°17'5 5.0
2015-Jan-24 13:29N 33°41' W 118°13'1010.6
2015-Jan-24 12:33N 33°32' W 118°08'1514.6
2015-Jan-24 11:33N 33°18' W 118°02'1817.5
2015-Jan-24 10:33N 33°02' W 117°54'1818.2
2015-Jan-24 09:33N 32°45' W 117°46'1918.8
2015-Jan-24 08:33N 32°27' W 117°39'2120.7
2015-Jan-24 07:33N 32°07' W 117°31'  
2015-Jan-18 18:00N 28°48' W 116°06'4530.9 070 / 51022.410.8 19.510.319.0
2015-Jan-18 16:33N 29°29' W 116°25'1919.1
2015-Jan-18 15:33N 29°47' W 116°33'2019.6
2015-Jan-18 14:34N 30°05' W 116°40'2019.6
2015-Jan-18 13:33N 30°24' W 116°49'1919.3
2015-Jan-18 12:34N 30°42' W 116°57'1919.2
2015-Jan-18 11:34N 30°60' W 117°04'2419.8
2015-Jan-18 10:21N 31°22' W 117°14'1619.6
2015-Jan-18 09:32N 31°37' W 117°21'1919.4
2015-Jan-18 08:33N 31°55' W 117°29'1919.3
2015-Jan-18 07:33N 32°13' W 117°37'1616.1
2015-Jan-18 06:34N 32°28' W 117°43'1615.5
2015-Jan-18 05:33N 32°42' W 117°50'1615.8
2015-Jan-18 04:33N 32°57' W 117°57'1615.7
2015-Jan-18 03:34N 33°12' W 118°03'1615.5
2015-Jan-18 02:33N 33°27' W 118°10'1413.9
2015-Jan-18 01:33N 33°40' W 118°15'5 5.0
2015-Jan-18 00:29N 33°45' W 118°17'0 0.0
2015-Jan-17 23:32N 33°45' W 118°17'0 0.0
2015-Jan-17 22:31N 33°45' W 118°17'0 0.0
2015-Jan-17 21:31N 33°45' W 118°17'0 0.0
2015-Jan-17 20:33N 33°45' W 118°17'0 0.0
2015-Jan-17 19:33N 33°45' W 118°17'0 0.0
2015-Jan-17 18:33N 33°45' W 118°17'0 0.0
2015-Jan-17 17:32N 33°45' W 118°17'0 0.0
2015-Jan-17 16:32N 33°45' W 118°17'0 0.0
2015-Jan-17 15:31N 33°45' W 118°17'0 0.0
2015-Jan-17 14:33N 33°45' W 118°17'5 5.4
2015-Jan-17 13:33N 33°41' W 118°13'10 9.8
2015-Jan-17 12:33N 33°31' W 118°08'1414.1
2015-Jan-17 11:33N 33°18' W 118°03'1919.1
2015-Jan-17 10:33N 33°00' W 117°54'2020.1
2015-Jan-17 09:33N 32°42' W 117°46'2020.2
2015-Jan-17 08:33N 32°23' W 117°38'2121.0
2015-Jan-17 07:33N 32°03' W 117°29'2221.8
2015-Jan-17 06:33N 31°42' W 117°20'2321.4
2015-Jan-17 05:27N 31°20' W 117°11'1921.5
2015-Jan-17 04:33N 31°02' W 117°03'2221.6
2015-Jan-17 03:33N 30°42' W 116°54'2421.8
2015-Jan-17 02:26N 30°19' W 116°45'1921.3
2015-Jan-17 01:33N 30°01' W 116°37'2120.6
2015-Jan-17 00:33N 29°42' W 116°29'2120.5
2015-Jan-16 23:33N 29°23' W 116°21'6220.8
2015-Jan-16 20:33N 28°24' W 115°57'  

Dump ship's entire track history